Seraing, Belgium
Current Conditions -  °F | °C
As of 3:50 AM on Saturday 22 Nov 2014 (Local Time) from EBLG Reporting Station
Clear Clear  
Wind Chill: 38°   Ceiling: Unl
Heat Index: 45°   Visibility: 6mi
Dew Point: 41°   Wind: 13mph
Humidity: 87%   Direction: 150°SSE
Pressure: 30.03"   Gusts: NA
Location:  50.59°N, 5.52°E
Report Text: EBLG 220250Z 15011KT CAVOK 07/05 Q1017 NOSIG
Loading
Personal Weather Stations






























Interactive Weather Map New forecast layout! Learn more

10-Day Weather Forecast

Advertisements
Track Severe Weather on mobile